createdAt,value
2023-02-23T00:02:45.734Z,10.30
2023-02-23T00:05:49.636Z,10.30
2023-02-23T00:08:57.507Z,10.30
2023-02-23T00:12:06.857Z,10.30
2023-02-23T00:15:15.033Z,10.30
2023-02-23T00:18:20.379Z,10.30
2023-02-23T00:21:29.239Z,10.30
2023-02-23T00:24:35.989Z,10.20
2023-02-23T00:27:43.691Z,10.20
2023-02-23T00:30:49.494Z,10.30
2023-02-23T00:33:57.784Z,10.30
2023-02-23T00:37:01.660Z,10.20
2023-02-23T00:40:12.423Z,10.20
2023-02-23T00:43:18.268Z,10.20
2023-02-23T00:46:30.511Z,10.20
2023-02-23T00:49:35.024Z,10.20
2023-02-23T00:52:42.896Z,10.20
2023-02-23T00:55:46.779Z,10.20
2023-02-23T00:58:52.656Z,10.20
2023-02-23T01:01:58.455Z,10.20
2023-02-23T01:05:04.314Z,10.20
2023-02-23T01:08:09.572Z,10.20
2023-02-23T01:11:17.700Z,10.20
2023-02-23T01:14:21.645Z,10.20
2023-02-23T01:17:30.033Z,10.20
2023-02-23T01:20:36.202Z,10.20
2023-02-23T01:23:42.085Z,10.20
2023-02-23T01:26:46.790Z,10.20
2023-02-23T01:29:52.693Z,10.20
2023-02-23T01:32:58.468Z,10.20
2023-02-23T01:36:06.655Z,10.20
2023-02-23T01:39:14.380Z,10.20
2023-02-23T01:42:22.265Z,10.20
2023-02-23T01:45:30.533Z,10.20
2023-02-23T01:48:41.030Z,10.20
2023-02-23T01:51:49.671Z,10.20
2023-02-23T01:54:57.220Z,10.20
2023-02-23T01:58:11.026Z,10.20
2023-02-23T02:01:17.475Z,10.20
2023-02-23T02:04:25.531Z,10.20
2023-02-23T02:11:30.238Z,10.20
2023-02-23T02:14:38.078Z,10.10
2023-02-23T02:17:52.719Z,10.10
2023-02-23T02:21:34.598Z,10.10
2023-02-23T02:25:18.000Z,10.10
2023-02-23T02:28:42.785Z,10.10
2023-02-23T02:32:31.564Z,10.10
2023-02-23T02:36:07.510Z,10.00
2023-02-23T02:39:23.449Z,10.00
2023-02-23T02:42:35.486Z,10.00
2023-02-23T02:45:50.494Z,10.00
2023-02-23T02:49:03.497Z,10.00
2023-02-23T02:52:13.286Z,10.00
2023-02-23T02:55:25.411Z,9.90
2023-02-23T02:58:30.768Z,9.90
2023-02-23T03:01:49.999Z,9.90
2023-02-23T03:05:07.051Z,9.90
2023-02-23T03:08:35.588Z,9.90
2023-02-23T03:11:59.062Z,9.90
2023-02-23T03:15:29.438Z,9.90
2023-02-23T03:19:00.685Z,9.90
2023-02-23T03:22:27.380Z,9.80
2023-02-23T03:25:49.589Z,9.80
2023-02-23T03:29:17.589Z,9.90
2023-02-23T03:32:42.323Z,9.80
2023-02-23T03:36:06.290Z,9.90
2023-02-23T03:39:32.538Z,9.80
2023-02-23T03:42:54.445Z,9.80
2023-02-23T03:46:16.144Z,9.80
2023-02-23T03:49:37.659Z,9.70
2023-02-23T03:52:59.061Z,9.70
2023-02-23T03:56:19.762Z,9.70
2023-02-23T03:59:40.525Z,9.70
2023-02-23T04:03:04.619Z,9.70
2023-02-23T04:06:25.959Z,9.80
2023-02-23T04:09:45.958Z,9.70
2023-02-23T04:13:11.050Z,9.70
2023-02-23T04:16:15.204Z,9.70
2023-02-23T04:19:21.118Z,9.80
2023-02-23T04:22:27.334Z,9.70
2023-02-23T04:25:32.258Z,9.70
2023-02-23T04:28:38.208Z,9.70
2023-02-23T04:31:43.008Z,9.70
2023-02-23T04:34:51.363Z,9.70
2023-02-23T04:37:55.550Z,9.70
2023-02-23T04:41:01.377Z,9.70
2023-02-23T04:44:05.142Z,9.70
2023-02-23T04:47:11.468Z,9.70
2023-02-23T04:50:17.758Z,9.70
2023-02-23T04:53:25.509Z,9.70
2023-02-23T04:56:29.416Z,9.70
2023-02-23T04:59:35.684Z,9.60
2023-02-23T05:02:39.873Z,9.70
2023-02-23T05:05:48.270Z,9.60
2023-02-23T05:08:54.829Z,9.60
2023-02-23T05:12:00.936Z,9.60
2023-02-23T05:15:05.099Z,9.60
2023-02-23T05:18:10.988Z,9.60
2023-02-23T05:21:17.183Z,9.60
2023-02-23T05:24:23.273Z,9.70
2023-02-23T05:27:26.911Z,9.70
2023-02-23T05:30:32.855Z,9.60
2023-02-23T05:33:41.629Z,9.60
2023-02-23T05:36:49.716Z,9.60
2023-02-23T05:39:53.574Z,9.60
2023-02-23T05:43:00.916Z,9.60
2023-02-23T05:46:08.228Z,9.60
2023-02-23T05:49:14.227Z,9.60
2023-02-23T05:52:20.154Z,9.50
2023-02-23T05:55:26.544Z,9.50
2023-02-23T05:58:30.900Z,9.50
2023-02-23T06:01:36.877Z,9.50
2023-02-23T06:04:41.490Z,9.50
2023-02-23T06:07:49.401Z,9.50
2023-02-23T06:10:53.796Z,9.50
2023-02-23T06:14:00.818Z,9.50
2023-02-23T06:17:05.087Z,9.50
2023-02-23T06:20:14.112Z,9.50
2023-02-23T06:23:20.284Z,9.50
2023-02-23T06:26:26.877Z,9.50
2023-02-23T06:29:30.604Z,9.50
2023-02-23T06:32:41.609Z,9.50
2023-02-23T06:35:52.018Z,9.50
2023-02-23T06:39:01.463Z,9.50
2023-02-23T06:42:05.827Z,9.50
2023-02-23T06:45:13.444Z,9.50
2023-02-23T06:48:17.271Z,9.50
2023-02-23T06:51:23.220Z,9.40
2023-02-23T06:54:29.109Z,9.40
2023-02-23T06:57:34.963Z,9.40
2023-02-23T07:00:42.444Z,9.40
2023-02-23T07:03:48.429Z,9.40
2023-02-23T07:06:52.090Z,9.40
2023-02-23T07:09:59.947Z,9.40
2023-02-23T07:13:03.896Z,9.40
2023-02-23T07:16:11.493Z,9.40
2023-02-23T07:19:15.410Z,9.30
2023-02-23T07:22:21.866Z,9.30
2023-02-23T07:25:27.870Z,9.30
2023-02-23T07:28:34.369Z,9.30
2023-02-23T07:31:38.473Z,9.30
2023-02-23T07:34:45.350Z,9.30
2023-02-23T07:37:49.423Z,9.30
2023-02-23T07:40:57.201Z,9.30
2023-02-23T07:44:01.545Z,9.30
2023-02-23T07:47:07.778Z,9.30
2023-02-23T07:50:13.420Z,9.30
2023-02-23T07:53:19.374Z,9.30
2023-02-23T07:56:25.024Z,9.30
2023-02-23T07:59:31.533Z,9.30
2023-02-23T08:02:35.746Z,9.30
2023-02-23T08:05:44.278Z,9.30
2023-02-23T08:08:48.640Z,9.30
2023-02-23T08:11:56.430Z,9.30
2023-02-23T08:15:00.463Z,9.30
2023-02-23T08:18:07.024Z,9.30
2023-02-23T08:21:11.366Z,9.30
2023-02-23T08:24:17.244Z,9.30
2023-02-23T08:27:23.160Z,9.30
2023-02-23T08:30:29.376Z,9.30
2023-02-23T08:33:34.682Z,9.30
2023-02-23T08:36:41.445Z,9.30
2023-02-23T08:39:45.522Z,9.30
2023-02-23T08:42:53.651Z,9.20
2023-02-23T08:45:57.671Z,9.20
2023-02-23T08:49:04.158Z,9.20
2023-02-23T08:52:08.096Z,9.20
2023-02-23T08:55:15.957Z,9.30
2023-02-23T08:58:22.702Z,9.20
2023-02-23T09:01:28.954Z,9.20
2023-02-23T09:04:34.600Z,9.20
2023-02-23T09:07:44.376Z,9.20
2023-02-23T09:10:48.406Z,9.30
2023-02-23T09:13:56.375Z,9.30
2023-02-23T09:17:00.544Z,9.30
2023-02-23T09:20:08.808Z,9.30
2023-02-23T09:23:13.733Z,9.30
2023-02-23T09:26:21.408Z,9.30
2023-02-23T09:29:27.604Z,9.30
2023-02-23T09:32:33.770Z,9.30
2023-02-23T09:35:38.732Z,9.30
2023-02-23T09:38:45.172Z,9.40
2023-02-23T09:42:18.373Z,9.40
2023-02-23T09:45:34.111Z,9.40
2023-02-23T09:48:38.109Z,9.40
2023-02-23T09:51:49.440Z,9.40
2023-02-23T09:54:53.800Z,9.40
2023-02-23T09:58:07.480Z,9.40
2023-02-23T10:01:45.337Z,9.40
2023-02-23T10:04:56.981Z,9.40
2023-02-23T10:08:08.750Z,9.50
2023-02-23T10:11:24.795Z,9.50
2023-02-23T10:14:57.070Z,9.50
2023-02-23T10:18:13.149Z,9.50
2023-02-23T10:21:22.687Z,9.50
2023-02-23T10:24:31.656Z,9.60
2023-02-23T10:27:42.416Z,9.50
2023-02-23T10:30:50.044Z,9.60
2023-02-23T10:34:01.265Z,9.60
2023-02-23T10:37:12.322Z,9.60
2023-02-23T10:40:20.184Z,9.60
2023-02-23T10:43:26.100Z,9.60
2023-02-23T10:46:34.174Z,9.60
2023-02-23T10:49:46.293Z,9.70
2023-02-23T10:52:52.434Z,9.70
2023-02-23T10:56:10.247Z,9.70
2023-02-23T10:59:21.129Z,9.70
2023-02-23T11:02:30.186Z,9.70
2023-02-23T11:05:39.277Z,9.80
2023-02-23T11:08:45.304Z,9.80
2023-02-23T11:11:59.078Z,9.80
2023-02-23T11:15:42.689Z,9.80
2023-02-23T11:18:55.725Z,9.90
2023-02-23T11:22:04.575Z,9.90
2023-02-23T11:25:18.704Z,9.90
2023-02-23T11:28:30.480Z,9.90
2023-02-23T11:31:36.583Z,10.00
2023-02-23T11:34:43.090Z,10.00
2023-02-23T11:37:49.412Z,10.00
2023-02-23T11:41:06.639Z,10.10
2023-02-23T11:44:21.415Z,10.10
2023-02-23T11:47:27.524Z,10.10
2023-02-23T11:50:34.873Z,10.20
2023-02-23T11:53:48.635Z,10.20
2023-02-23T11:56:54.807Z,10.20
2023-02-23T12:00:10.520Z,10.20
2023-02-23T12:03:25.310Z,10.20
2023-02-23T12:06:32.888Z,10.20
2023-02-23T12:09:38.766Z,10.20
2023-02-23T12:13:02.111Z,10.20
2023-02-23T12:16:12.234Z,10.20
2023-02-23T12:19:25.955Z,10.20
2023-02-23T12:22:35.772Z,10.20
2023-02-23T12:25:50.319Z,10.20
2023-02-23T12:29:01.939Z,10.20
2023-02-23T12:32:16.182Z,10.20
2023-02-23T12:35:23.921Z,10.20
2023-02-23T12:38:48.238Z,10.20
2023-02-23T12:42:02.896Z,10.20
2023-02-23T12:45:18.601Z,10.20
2023-02-23T12:48:34.621Z,10.20
2023-02-23T12:51:45.235Z,10.20
2023-02-23T12:54:49.972Z,10.20
2023-02-23T12:58:07.268Z,10.20
2023-02-23T13:01:16.122Z,10.20
2023-02-23T13:04:46.120Z,10.10
2023-02-23T13:08:12.483Z,10.20
2023-02-23T13:11:27.589Z,10.10
2023-02-23T13:14:39.262Z,10.10
2023-02-23T13:17:51.101Z,10.10
2023-02-23T13:21:03.159Z,10.10
2023-02-23T13:24:13.870Z,10.10
2023-02-23T13:27:22.981Z,10.10
2023-02-23T13:30:36.435Z,10.10
2023-02-23T13:33:44.438Z,10.10
2023-02-23T13:36:52.146Z,10.10
2023-02-23T13:40:03.945Z,10.10
2023-02-23T13:43:17.007Z,10.00
2023-02-23T13:46:31.523Z,10.00
2023-02-23T13:49:44.668Z,10.00
2023-02-23T13:52:48.978Z,10.00
2023-02-23T13:55:55.039Z,10.00
2023-02-23T13:59:02.452Z,10.00
2023-02-23T14:02:27.214Z,10.00
2023-02-23T14:05:33.307Z,10.10
2023-02-23T14:08:41.511Z,10.00
2023-02-23T14:11:50.289Z,10.10
2023-02-23T14:14:56.549Z,10.10
2023-02-23T14:18:03.428Z,10.10
2023-02-23T14:21:21.972Z,10.10
2023-02-23T14:24:27.863Z,10.10
2023-02-23T14:27:45.523Z,10.20
2023-02-23T14:30:52.782Z,10.20
2023-02-23T14:34:07.697Z,10.20
2023-02-23T14:37:32.479Z,10.20
2023-02-23T14:40:42.394Z,10.20
2023-02-23T14:43:47.314Z,10.20
2023-02-23T14:46:58.614Z,10.20
2023-02-23T14:50:04.733Z,10.20
2023-02-23T14:53:19.990Z,10.20
2023-02-23T14:56:35.480Z,10.20
2023-02-23T14:59:45.836Z,10.10
2023-02-23T15:02:58.635Z,10.10
2023-02-23T15:06:07.518Z,10.10
2023-02-23T15:09:19.367Z,10.10
2023-02-23T15:12:28.922Z,10.10
2023-02-23T15:15:32.777Z,10.10
2023-02-23T15:18:41.985Z,10.10
2023-02-23T15:21:53.918Z,10.10
2023-02-23T15:25:02.528Z,10.10
2023-02-23T15:28:21.225Z,10.10
2023-02-23T15:31:31.804Z,10.10
2023-02-23T15:34:36.783Z,10.10
2023-02-23T15:37:55.281Z,10.10
2023-02-23T15:41:16.762Z,10.10
2023-02-23T15:44:27.503Z,10.10
2023-02-23T15:47:36.372Z,10.10
2023-02-23T15:50:49.428Z,10.10
2023-02-23T15:53:56.120Z,10.10
2023-02-23T15:57:07.215Z,10.10
2023-02-23T16:00:22.815Z,10.10
2023-02-23T16:03:33.234Z,10.10
2023-02-23T16:06:41.199Z,10.10
2023-02-23T16:09:54.950Z,10.10
2023-02-23T16:13:03.085Z,10.10
2023-02-23T16:16:18.564Z,10.10
2023-02-23T16:19:24.682Z,10.10
2023-02-23T16:22:30.722Z,10.10
2023-02-23T16:25:36.476Z,10.10
2023-02-23T16:28:44.997Z,10.10
2023-02-23T16:31:50.687Z,10.10
2023-02-23T16:35:00.784Z,10.10
2023-02-23T16:38:12.212Z,10.00
2023-02-23T16:41:22.368Z,10.00
2023-02-23T16:44:34.313Z,9.90
2023-02-23T16:47:49.074Z,9.90
2023-02-23T16:50:53.331Z,9.80
2023-02-23T16:53:59.357Z,9.80
2023-02-23T16:57:06.248Z,9.70
2023-02-23T17:00:19.924Z,9.60
2023-02-23T17:03:26.080Z,9.50
2023-02-23T17:06:31.979Z,9.40
2023-02-23T17:09:35.803Z,9.40
2023-02-23T17:12:47.203Z,9.30
2023-02-23T17:15:55.712Z,9.20
2023-02-23T17:19:01.813Z,9.10
2023-02-23T17:22:06.080Z,9.00
2023-02-23T17:25:14.077Z,9.00
2023-02-23T17:28:20.907Z,8.90
2023-02-23T17:31:27.723Z,8.80
2023-02-23T17:34:32.357Z,8.70
2023-02-23T17:37:39.027Z,8.70
2023-02-23T17:40:43.531Z,8.60
2023-02-23T17:43:51.582Z,8.50
2023-02-23T17:46:55.567Z,8.50
2023-02-23T17:50:02.097Z,8.50
2023-02-23T17:53:06.013Z,8.40
2023-02-23T17:56:12.363Z,8.30
2023-02-23T17:59:18.172Z,8.30
2023-02-23T18:02:24.657Z,8.30
2023-02-23T18:05:28.558Z,8.20
2023-02-23T18:08:35.158Z,8.20
2023-02-23T18:11:39.056Z,8.10
2023-02-23T18:14:47.703Z,8.10
2023-02-23T18:17:53.938Z,8.10
2023-02-23T18:21:02.197Z,8.10
2023-02-23T18:24:06.736Z,8.10
2023-02-23T18:27:12.726Z,8.00
2023-02-23T18:30:18.974Z,8.00
2023-02-23T18:33:24.929Z,8.00
2023-02-23T18:36:31.635Z,8.10
2023-02-23T18:39:37.750Z,8.00
2023-02-23T18:42:41.553Z,8.00
2023-02-23T18:45:49.660Z,8.00
2023-02-23T18:48:54.067Z,8.00
2023-02-23T18:51:59.958Z,8.00
2023-02-23T18:55:04.639Z,8.00
2023-02-23T18:58:10.539Z,8.00
2023-02-23T19:01:17.628Z,8.00
2023-02-23T19:04:23.711Z,8.00
2023-02-23T19:07:27.882Z,8.00
2023-02-23T19:10:33.905Z,8.00
2023-02-23T19:13:39.023Z,7.90
2023-02-23T19:16:47.059Z,7.90
2023-02-23T19:19:53.752Z,7.90
2023-02-23T19:23:00.076Z,7.90
2023-02-23T19:26:04.922Z,7.90
2023-02-23T19:29:10.783Z,7.90
2023-02-23T19:32:17.853Z,7.90
2023-02-23T19:35:25.472Z,7.90
2023-02-23T19:38:29.866Z,7.90
2023-02-23T19:41:36.461Z,7.90
2023-02-23T19:44:40.536Z,7.80
2023-02-23T19:47:48.763Z,7.80
2023-02-23T19:50:54.108Z,7.90
2023-02-23T19:54:00.729Z,7.80
2023-02-23T19:57:05.522Z,7.80
2023-02-23T20:00:12.936Z,7.80
2023-02-23T20:03:24.199Z,7.80
2023-02-23T20:06:35.578Z,7.80
2023-02-23T20:09:39.736Z,7.80
2023-02-23T20:12:46.182Z,7.70
2023-02-23T20:15:51.531Z,7.70
2023-02-23T20:19:00.489Z,7.70
2023-02-23T20:22:05.106Z,7.60
2023-02-23T20:25:28.512Z,7.60
2023-02-23T20:28:33.059Z,7.60
2023-02-23T20:31:41.012Z,7.50
2023-02-23T20:34:49.728Z,7.50
2023-02-23T20:37:55.682Z,7.50
2023-02-23T20:41:02.364Z,7.40
2023-02-23T20:44:08.263Z,7.40
2023-02-23T20:47:12.422Z,7.40
2023-02-23T20:50:22.331Z,7.30
2023-02-23T20:53:28.276Z,7.30
2023-02-23T20:56:34.673Z,7.20
2023-02-23T20:59:38.850Z,7.20
2023-02-23T21:02:44.995Z,7.20
2023-02-23T21:05:52.618Z,7.10
2023-02-23T21:09:05.371Z,7.10
2023-02-23T21:12:10.744Z,7.00
2023-02-23T21:15:17.053Z,7.00
2023-02-23T21:18:20.963Z,6.90
2023-02-23T21:21:29.428Z,6.90
2023-02-23T21:24:34.102Z,6.80
2023-02-23T21:27:40.241Z,6.80
2023-02-23T21:30:44.199Z,6.80
2023-02-23T21:33:50.468Z,6.70
2023-02-23T21:36:58.536Z,6.70
2023-02-23T21:40:06.325Z,6.60
2023-02-23T21:43:12.316Z,6.60
2023-02-23T21:46:19.037Z,6.60
2023-02-23T21:49:23.017Z,6.50
2023-02-23T21:52:31.093Z,6.40
2023-02-23T21:55:35.299Z,6.40
2023-02-23T21:58:44.510Z,6.30
2023-02-23T22:01:48.411Z,6.30
2023-02-23T22:04:54.339Z,6.30
2023-02-23T22:07:59.947Z,6.20
2023-02-23T22:11:09.927Z,6.20
2023-02-23T22:14:15.783Z,6.10
2023-02-23T22:17:22.298Z,6.10
2023-02-23T22:20:26.709Z,6.00
2023-02-23T22:23:34.893Z,6.00
2023-02-23T22:26:41.124Z,5.90
2023-02-23T22:29:46.963Z,5.90
2023-02-23T22:32:50.740Z,5.80
2023-02-23T22:35:57.904Z,5.80
2023-02-23T22:39:04.888Z,5.80
2023-02-23T22:42:12.143Z,5.70
2023-02-23T22:45:17.463Z,5.70
2023-02-23T22:48:24.690Z,5.60
2023-02-23T22:51:28.549Z,5.60
2023-02-23T22:54:36.756Z,5.60
2023-02-23T22:57:41.267Z,5.60
2023-02-23T23:01:01.620Z,5.50
2023-02-23T23:04:09.661Z,5.50
2023-02-23T23:07:19.309Z,5.50
2023-02-23T23:10:25.122Z,5.40
2023-02-23T23:13:32.428Z,5.40
2023-02-23T23:16:46.926Z,5.40
2023-02-23T23:19:53.312Z,5.40
2023-02-23T23:22:58.027Z,5.30
2023-02-23T23:26:06.626Z,5.30
2023-02-23T23:29:12.670Z,5.30
2023-02-23T23:32:26.840Z,5.20
2023-02-23T23:35:33.705Z,5.20
2023-02-23T23:38:41.672Z,5.10
2023-02-23T23:41:49.294Z,5.10
2023-02-23T23:44:56.237Z,5.10
2023-02-23T23:48:00.410Z,5.00
2023-02-23T23:51:06.942Z,5.00
2023-02-23T23:54:11.012Z,4.90
2023-02-23T23:57:18.896Z,4.90
